Time;durP1;ratioP1;P1;durP2;ratioP2;P2;SDS_P1;SDS_P2;PMS_P1;PMS_P2;Temp;Humidity;BMP_temperature;BMP_pressure;BME280_temperature;BME280_humidity;BME280_pressure;Samples;Min_cycle;Max_cycle;Signal;HPM_P1;HPM_P2
2023/01/31 00:00:00;;;;;;;18.08;3.35;;;15.10;71.20;;;;;;4061798;29;20063;-69
2023/01/31 00:02:41;;;;;;;17.73;2.83;;;15.20;71.10;;;;;;4062368;29;20102;-69
2023/01/31 00:05:22;;;;;;;19.52;3.40;;;15.20;70.80;;;;;;4053471;29;20046;-69
2023/01/31 00:08:05;;;;;;;12.50;3.07;;;15.20;70.60;;;;;;4064882;29;20063;-69
2023/01/31 00:10:45;;;;;;;15.70;3.40;;;15.20;70.50;;;;;;4065053;29;20099;-69
2023/01/31 00:13:27;;;;;;;13.82;2.92;;;15.20;70.90;;;;;;4053361;29;20078;-70
2023/01/31 00:16:09;;;;;;;11.50;2.80;;;15.30;70.80;;;;;;4053389;29;20071;-69
2023/01/31 00:18:50;;;;;;;12.63;3.15;;;15.40;70.50;;;;;;4065058;29;20123;-69
2023/01/31 00:21:32;;;;;;;15.45;3.40;;;15.40;70.10;;;;;;4064794;29;20055;-69
2023/01/31 00:24:14;;;;;;;;;;;15.50;69.90;;;;;;4065490;29;20059;-69
2023/01/31 00:26:56;;;;;;;14.55;3.05;;;15.50;70.00;;;;;;4064930;29;19982;-69
2023/01/31 00:29:38;;;;;;;20.33;3.47;;;15.40;70.20;;;;;;4037668;29;20165;-69
2023/01/31 00:32:20;;;;;;;14.10;3.88;;;15.40;69.90;;;;;;4049379;29;20134;-69
2023/01/31 00:35:03;;;;;;;12.48;3.58;;;15.40;69.80;;;;;;4062286;29;20055;-68
2023/01/31 00:37:44;;;;;;;16.17;2.92;;;15.40;69.90;;;;;;4053033;29;20059;-70
2023/01/31 00:40:28;;;;;;;12.68;2.92;;;15.40;70.00;;;;;;4065310;29;20187;-69
2023/01/31 00:43:34;;;;;;;16.58;2.85;;;15.30;70.10;;;;;;4064945;29;20111;-69
2023/01/31 00:46:15;;;;;;;17.27;2.97;;;15.30;70.30;;;;;;4065034;29;20510;-70
2023/01/31 00:48:57;;;;;;;16.25;2.67;;;15.40;70.30;;;;;;4064506;29;20063;-69
2023/01/31 00:51:38;;;;;;;15.40;3.08;;;15.40;70.20;;;;;;4063034;29;20525;-69
2023/01/31 00:54:19;;;;;;;18.90;4.15;;;15.30;70.30;;;;;;4053030;29;20055;-69
2023/01/31 00:57:01;;;;;;;13.45;2.83;;;15.40;70.30;;;;;;4052731;29;20063;-70
2023/01/31 00:59:44;;;;;;;21.50;3.42;;;15.30;70.30;;;;;;4041979;29;20051;-69
2023/01/31 01:02:25;;;;;;;14.02;3.20;;;15.30;70.40;;;;;;4064544;29;20642;-69
2023/01/31 01:05:07;;;;;;;12.80;3.25;;;15.30;70.70;;;;;;4063990;29;20055;-69
2023/01/31 01:07:47;;;;;;;14.57;2.88;;;15.30;70.80;;;;;;4052230;29;20187;-69
2023/01/31 01:10:29;;;;;;;14.75;3.10;;;15.40;70.50;;;;;;4052661;29;20067;-69
2023/01/31 01:13:12;;;;;;;15.88;2.95;;;15.50;70.10;;;;;;4048726;29;20437;-69
2023/01/31 01:15:55;;;;;;;14.00;3.20;;;15.50;69.70;;;;;;4036501;29;20076;-70
2023/01/31 01:18:36;;;;;;;13.13;2.67;;;15.50;69.60;;;;;;4037056;29;20064;-70
2023/01/31 01:21:20;;;;;;;14.98;4.00;;;15.50;69.80;;;;;;4045509;29;20067;-69
2023/01/31 01:24:02;;;;;;;13.20;2.78;;;15.60;69.60;;;;;;4052957;29;20075;-69
2023/01/31 01:26:43;;;;;;;13.07;3.05;;;15.60;69.50;;;;;;4052419;29;20233;-70
2023/01/31 01:29:25;;;;;;;12.18;3.00;;;15.60;69.50;;;;;;4064352;29;20628;-70
2023/01/31 01:32:07;;;;;;;10.75;2.55;;;15.60;69.60;;;;;;4041734;29;20063;-69
2023/01/31 01:34:48;;;;;;;10.80;2.30;;;15.60;69.60;;;;;;4064377;29;20059;-70
2023/01/31 01:37:29;;;;;;;13.23;2.60;;;15.60;69.70;;;;;;4062872;29;20191;-70
2023/01/31 01:40:11;;;;;;;12.43;2.67;;;15.50;69.80;;;;;;4052625;29;20071;-69
2023/01/31 01:42:51;;;;;;;13.77;2.72;;;15.50;70.00;;;;;;4064231;29;20103;-69
2023/01/31 01:45:34;;;;;;;15.95;2.63;;;15.40;70.00;;;;;;4064245;29;20071;-70
2023/01/31 01:48:17;;;;;;;12.60;2.67;;;15.40;70.30;;;;;;4063882;29;20067;-70
2023/01/31 01:50:59;;;;;;;11.25;2.70;;;15.40;70.00;;;;;;4064012;29;20079;-69
2023/01/31 01:53:43;;;;;;;14.45;2.25;;;15.40;70.00;;;;;;4063759;29;20059;-66
2023/01/31 01:56:28;;;;;;;12.77;3.08;;;15.40;70.30;;;;;;4052515;29;20500;-66
2023/01/31 01:59:12;;;;;;;11.32;2.95;;;15.40;70.70;;;;;;4064232;29;20059;-66
2023/01/31 02:01:56;;;;;;;10.05;3.33;;;15.40;70.60;;;;;;4063606;29;20059;-69
2023/01/31 02:04:42;;;;;;;10.20;2.10;;;15.50;70.20;;;;;;4064132;29;20055;-69
2023/01/31 02:07:24;;;;;;;16.63;3.53;;;15.60;70.00;;;;;;4063806;29;20128;-66
2023/01/31 02:10:13;;;;;;;13.40;2.20;;;15.60;69.80;;;;;;4051897;29;20498;-65
2023/01/31 02:12:55;;;;;;;12.07;2.63;;;15.70;69.40;;;;;;4063694;29;20135;-65
2023/01/31 02:15:37;;;;;;;7.93;2.45;;;15.70;69.50;;;;;;4063372;29;20079;-66
2023/01/31 02:18:20;;;;;;;8.48;2.20;;;15.80;69.30;;;;;;4063349;29;20133;-66
2023/01/31 02:21:43;;;;;;;12.80;3.05;;;15.90;68.90;;;;;;4040620;29;20055;-66
2023/01/31 02:25:05;;;;;;;14.07;2.83;;;15.90;68.40;;;;;;4062794;29;20055;-66
2023/01/31 02:28:12;;;;;;;14.25;3.38;;;15.90;68.20;;;;;;4036220;29;20056;-65
2023/01/31 02:31:53;;;;;;;10.00;2.53;;;15.90;68.10;;;;;;4026029;29;20055;-66
2023/01/31 02:34:42;;;;;;;11.82;2.50;;;15.90;68.90;;;;;;4019352;29;20499;-66
2023/01/31 02:37:29;;;;;;;12.27;3.13;;;15.90;69.80;;;;;;4030673;29;20162;-65
2023/01/31 02:40:20;;;;;;;11.68;2.50;;;15.90;68.60;;;;;;4046131;29;20516;-65
2023/01/31 02:43:08;;;;;;;10.68;2.20;;;16.00;69.10;;;;;;4051779;29;20110;-66
2023/01/31 02:45:57;;;;;;;11.55;2.05;;;16.00;68.20;;;;;;4051238;29;20063;-66
2023/01/31 02:48:46;;;;;;;13.50;2.50;;;16.00;68.50;;;;;;4051322;29;20103;-66
2023/01/31 02:51:33;;;;;;;13.18;2.60;;;15.90;68.40;;;;;;4051427;29;20502;-66
2023/01/31 02:54:21;;;;;;;10.57;2.60;;;15.90;68.40;;;;;;4035992;29;20407;-66
2023/01/31 02:57:02;;;;;;;10.93;2.03;;;15.90;68.40;;;;;;4036153;29;20432;-66
2023/01/31 02:59:43;;;;;;;12.13;2.60;;;15.80;68.70;;;;;;4050338;29;20050;-66
2023/01/31 03:02:25;;;;;;;12.80;2.80;;;15.80;69.10;;;;;;4063247;29;20143;-66
2023/01/31 03:05:07;;;;;;;9.35;2.25;;;15.80;69.20;;;;;;4051322;29;20055;-67
2023/01/31 03:07:52;;;;;;;11.13;2.60;;;15.80;69.10;;;;;;4061934;29;20123;-66
2023/01/31 03:10:50;;;;;;;11.40;2.30;;;15.80;69.90;;;;;;4051184;29;20059;-66
2023/01/31 03:13:47;;;;;;;12.05;2.70;;;15.80;69.00;;;;;;4051041;29;20110;-66
2023/01/31 03:19:35;;;;;;;8.88;2.33;;;15.80;69.00;;;;;;4050559;29;20067;-66
2023/01/31 03:22:22;;;;;;;7.35;1.70;;;15.90;68.90;;;;;;4062504;29;20184;-66
2023/01/31 03:25:09;;;;;;;10.98;2.17;;;15.90;68.70;;;;;;4050696;29;20051;-66
2023/01/31 03:27:55;;;;;;;9.32;2.22;;;15.90;68.60;;;;;;4050716;29;20055;-66
2023/01/31 03:30:43;;;;;;;9.40;2.33;;;15.80;68.50;;;;;;4050934;29;20058;-66
2023/01/31 03:33:29;;;;;;;12.43;1.98;;;15.80;68.80;;;;;;4028436;29;20525;-66
2023/01/31 03:36:17;;;;;;;12.43;2.13;;;15.80;68.80;;;;;;4040228;29;20058;-67
2023/01/31 03:39:13;;;;;;;15.65;3.10;;;15.80;68.70;;;;;;4050057;29;20070;-66
2023/01/31 03:42:06;;;;;;;11.68;2.88;;;15.80;68.70;;;;;;4050891;29;20380;-66
2023/01/31 03:44:50;;;;;;;;;;;15.80;68.80;;;;;;4062603;29;20503;-66
2023/01/31 03:47:35;;;;;;;10.70;1.65;;;15.80;69.00;;;;;;4050662;29;19934;-66
2023/01/31 03:50:21;;;;;;;11.05;2.88;;;15.80;68.70;;;;;;4050879;29;20059;-65
2023/01/31 03:53:07;;;;;;;12.20;2.33;;;15.80;68.70;;;;;;4051059;29;20060;-67
2023/01/31 03:55:52;;;;;;;9.32;2.47;;;15.70;68.80;;;;;;4051274;29;20510;-66
2023/01/31 03:58:41;;;;;;;11.27;2.40;;;15.70;69.10;;;;;;4051086;29;20055;-66
2023/01/31 04:01:24;;;;;;;11.20;2.03;;;15.60;69.30;;;;;;4050218;29;20781;-66
2023/01/31 04:04:09;;;;;;;17.67;3.20;;;15.60;69.90;;;;;;4040140;29;20127;-66
2023/01/31 04:06:50;;;;;;;13.80;3.17;;;15.60;70.90;;;;;;4050517;29;20059;-66
2023/01/31 04:09:32;;;;;;;7.55;2.47;;;15.60;69.60;;;;;;4050851;29;20387;-66
2023/01/31 04:12:15;;;;;;;11.00;2.20;;;15.70;69.50;;;;;;4062668;29;20072;-66
2023/01/31 04:14:57;;;;;;;9.30;2.53;;;15.70;69.30;;;;;;4062595;29;20189;-66
2023/01/31 04:17:38;;;;;;;9.27;2.47;;;15.70;70.00;;;;;;4062249;29;20524;-66
2023/01/31 04:20:20;;;;;;;10.48;2.38;;;15.80;69.00;;;;;;4062732;29;20075;-65
2023/01/31 04:23:00;;;;;;;12.52;3.08;;;15.80;68.80;;;;;;4062683;29;20070;-65
2023/01/31 04:25:41;;;;;;;10.57;2.55;;;15.80;69.00;;;;;;4062655;29;20059;-65
2023/01/31 04:28:22;;;;;;;13.38;2.55;;;15.80;68.90;;;;;;4046471;29;20052;-67
2023/01/31 04:31:05;;;;;;;12.05;2.35;;;15.80;68.70;;;;;;4046736;29;20059;-66
2023/01/31 04:33:46;;;;;;;7.75;2.28;;;15.80;68.60;;;;;;4046390;29;20103;-66
2023/01/31 04:36:27;;;;;;;15.30;4.05;;;15.80;68.80;;;;;;4047771;29;20405;-66
2023/01/31 04:39:12;;;;;;;11.15;2.25;;;15.80;69.00;;;;;;4062655;29;20055;-65
2023/01/31 04:41:53;;;;;;;15.23;3.10;;;15.80;68.80;;;;;;4050660;29;20056;-66
2023/01/31 04:44:33;;;;;;;9.70;2.17;;;15.90;68.70;;;;;;4062065;29;20067;-66
2023/01/31 04:47:16;;;;;;;9.53;2.40;;;15.90;68.50;;;;;;4062066;29;20071;-66
2023/01/31 04:49:56;;;;;;;9.40;2.53;;;15.90;68.50;;;;;;4050494;29;20331;-66
2023/01/31 04:52:37;;;;;;;14.13;2.47;;;16.00;68.30;;;;;;4053382;29;20087;-67
2023/01/31 04:55:18;;;;;;;11.30;3.05;;;16.00;68.10;;;;;;4064941;29;20134;-66
2023/01/31 04:57:59;;;;;;;;;;;16.00;68.10;;;;;;4065326;29;20558;-67
2023/01/31 05:00:40;;;;;;;11.40;3.33;;;16.00;68.00;;;;;;4052763;29;19930;-66
2023/01/31 05:03:22;;;;;;;15.63;3.57;;;16.00;68.00;;;;;;4064983;29;20199;-70
2023/01/31 05:06:03;;;;;;;10.52;3.13;;;15.90;68.10;;;;;;4064946;29;20367;-70
2023/01/31 05:08:45;;;;;;;16.05;2.85;;;15.90;68.40;;;;;;4065029;29;20145;-69
2023/01/31 05:11:26;;;;;;;13.23;3.47;;;15.90;68.40;;;;;;4064783;29;20078;-70
2023/01/31 05:14:06;;;;;;;13.07;2.83;;;16.00;68.20;;;;;;4036312;29;20111;-69
2023/01/31 05:16:48;;;;;;;10.75;3.05;;;16.00;68.20;;;;;;4026904;29;20051;-70
2023/01/31 05:19:30;;;;;;;14.60;2.80;;;16.10;68.20;;;;;;4049343;29;20067;-70
2023/01/31 05:22:11;;;;;;;18.63;4.00;;;16.10;67.90;;;;;;4048188;29;20047;-69
2023/01/31 05:24:52;;;;;;;15.18;3.72;;;16.10;67.80;;;;;;4048767;29;20104;-69
2023/01/31 05:27:33;;;;;;;10.77;2.85;;;16.10;68.60;;;;;;4048680;29;20063;-69
2023/01/31 05:30:14;;;;;;;14.40;3.20;;;16.10;67.80;;;;;;4048968;29;20061;-70
2023/01/31 05:32:55;;;;;;;13.02;3.50;;;16.20;67.60;;;;;;4047936;29;20296;-70
2023/01/31 05:35:38;;;;;;;13.95;2.75;;;16.20;67.30;;;;;;4048556;29;20055;-70
2023/01/31 05:38:19;;;;;;;16.10;3.85;;;16.30;67.10;;;;;;4048597;29;20047;-70
2023/01/31 05:40:59;;;;;;;12.35;3.88;;;16.20;67.10;;;;;;4033234;29;20389;-70
2023/01/31 05:43:41;;;;;;;12.95;3.65;;;16.20;67.20;;;;;;4046704;29;20518;-70
2023/01/31 05:46:21;;;;;;;11.00;3.13;;;16.20;67.40;;;;;;4048659;29;20059;-71
2023/01/31 05:49:02;;;;;;;16.95;3.85;;;16.10;67.50;;;;;;4048576;29;20103;-66
2023/01/31 05:51:45;;;;;;;12.10;3.22;;;16.10;67.80;;;;;;4048858;29;20510;-66
2023/01/31 05:54:25;;;;;;;11.23;2.85;;;16.10;67.70;;;;;;4047831;29;20547;-66
2023/01/31 05:57:07;;;;;;;11.63;2.75;;;16.00;67.90;;;;;;4047652;29;20056;-66
2023/01/31 05:59:48;;;;;;;;;;;16.00;68.10;;;;;;4048806;29;20059;-66
2023/01/31 06:02:29;;;;;;;11.50;2.65;;;15.90;68.30;;;;;;4048357;29;19946;-66
2023/01/31 06:05:12;;;;;;;15.43;3.50;;;15.80;68.70;;;;;;4048344;29;20949;-66
2023/01/31 06:07:54;;;;;;;12.23;3.30;;;15.80;69.00;;;;;;4048143;29;20116;-66
2023/01/31 06:10:35;;;;;;;19.88;3.95;;;15.70;69.00;;;;;;4048386;29;20124;-66
2023/01/31 06:13:15;;;;;;;13.18;3.38;;;15.80;70.00;;;;;;4036348;29;20121;-69
2023/01/31 06:15:57;;;;;;;16.77;3.00;;;15.70;69.30;;;;;;4032524;29;20172;-69
2023/01/31 06:18:38;;;;;;;16.02;3.17;;;15.70;69.30;;;;;;4017481;29;20137;-69
2023/01/31 06:21:19;;;;;;;13.25;3.80;;;15.80;69.40;;;;;;4017520;29;20056;-69
2023/01/31 06:24:01;;;;;;;11.20;3.30;;;15.80;69.10;;;;;;4022907;29;20076;-69
2023/01/31 06:26:42;;;;;;;13.52;2.67;;;15.80;69.10;;;;;;4032576;29;20065;-69
2023/01/31 06:29:24;;;;;;;16.27;3.60;;;15.80;69.00;;;;;;4032789;29;20052;-69
2023/01/31 06:32:05;;;;;;;;;;;15.90;68.70;;;;;;4032982;29;20051;-69
2023/01/31 06:34:46;;;;;;;16.67;3.47;;;15.90;68.60;;;;;;4032204;29;19934;-67
2023/01/31 06:37:27;;;;;;;13.50;3.22;;;16.00;68.60;;;;;;4032252;29;20056;-69
2023/01/31 06:40:10;;;;;;;19.42;3.75;;;16.00;68.20;;;;;;4020977;29;20169;-69
2023/01/31 06:42:51;;;;;;;13.63;3.55;;;16.10;67.90;;;;;;4043426;29;20055;-70
2023/01/31 06:45:32;;;;;;;15.65;3.58;;;16.10;67.80;;;;;;4047672;29;20063;-70
2023/01/31 06:48:13;;;;;;;15.07;3.28;;;16.20;67.70;;;;;;4030261;29;20055;-70
2023/01/31 06:50:54;;;;;;;14.10;3.35;;;16.20;67.40;;;;;;4031789;29;20063;-69
2023/01/31 06:53:36;;;;;;;15.88;3.33;;;16.20;67.30;;;;;;4021149;29;20128;-65
2023/01/31 06:56:18;;;;;;;13.57;3.85;;;16.20;67.60;;;;;;4031830;29;20144;-69
2023/01/31 06:58:59;;;;;;;18.73;3.30;;;16.20;67.50;;;;;;4016576;29;20185;-69
2023/01/31 07:01:39;;;;;;;16.63;3.60;;;16.20;67.30;;;;;;4027078;29;20059;-70
2023/01/31 07:04:21;;;;;;;18.25;4.13;;;16.20;67.40;;;;;;4030740;29;20051;-70
2023/01/31 07:07:02;;;;;;;13.40;3.50;;;16.20;67.50;;;;;;4031669;29;20063;-65
2023/01/31 07:09:42;;;;;;;15.77;4.05;;;16.20;67.30;;;;;;4031790;29;20056;-72
2023/01/31 07:12:25;;;;;;;15.90;4.43;;;16.20;67.30;;;;;;4036244;29;20067;-70
2023/01/31 07:15:07;;;;;;;13.10;3.80;;;16.10;68.10;;;;;;4054738;29;20455;-73
2023/01/31 07:17:48;;;;;;;15.68;3.28;;;16.10;67.50;;;;;;4042131;29;20096;-70
2023/01/31 07:20:29;;;;;;;15.48;4.30;;;16.00;67.50;;;;;;4046634;29;20139;-70
2023/01/31 07:23:10;;;;;;;16.52;3.15;;;16.10;67.30;;;;;;4047126;29;20073;-70
2023/01/31 07:25:50;;;;;;;14.40;3.65;;;16.10;66.90;;;;;;4046403;29;20047;-65
2023/01/31 07:28:33;;;;;;;14.48;3.00;;;16.20;66.70;;;;;;4047466;29;20151;-65
2023/01/31 07:31:15;;;;;;;11.65;2.95;;;16.10;66.50;;;;;;4046700;29;20054;-65
2023/01/31 07:33:55;;;;;;;13.80;3.08;;;16.10;67.20;;;;;;4046341;29;20051;-65
2023/01/31 07:36:37;;;;;;;12.88;3.58;;;16.20;66.10;;;;;;4034899;29;20052;-66
2023/01/31 07:39:17;;;;;;;11.80;3.72;;;16.20;65.90;;;;;;4046844;29;20055;-64
2023/01/31 07:41:58;;;;;;;11.98;2.95;;;16.20;65.80;;;;;;4046372;29;20055;-65
2023/01/31 07:44:40;;;;;;;15.05;3.58;;;16.10;65.80;;;;;;4045938;29;20095;-64
2023/01/31 07:47:21;;;;;;;11.77;3.25;;;16.10;66.60;;;;;;4044271;29;20059;-69
2023/01/31 07:50:02;;;;;;;9.38;2.50;;;16.10;65.80;;;;;;4044203;29;20096;-66
2023/01/31 07:52:43;;;;;;;10.18;3.03;;;16.00;67.00;;;;;;4032264;29;20104;-66
2023/01/31 07:55:25;;;;;;;13.27;3.88;;;16.10;65.90;;;;;;4033378;29;20132;-66
2023/01/31 07:58:06;;;;;;;11.00;3.15;;;16.10;65.70;;;;;;4044286;29;20074;-66
2023/01/31 08:03:47;;;;;;;12.50;2.47;;;16.10;65.50;;;;;;4043630;29;20063;-66
2023/01/31 08:06:30;;;;;;;17.38;4.20;;;16.10;65.40;;;;;;4043685;29;20068;-66
2023/01/31 08:09:11;;;;;;;13.25;3.03;;;16.10;65.50;;;;;;4043932;29;20635;-66
2023/01/31 08:11:52;;;;;;;7.95;3.17;;;16.00;65.60;;;;;;4032210;29;20135;-66
2023/01/31 08:14:33;;;;;;;7.25;2.50;;;16.10;65.70;;;;;;4032436;29;20413;-66
2023/01/31 08:17:15;;;;;;;10.23;2.53;;;16.10;65.50;;;;;;4043149;29;20127;-67
2023/01/31 08:19:56;;;;;;;8.32;2.17;;;16.10;65.30;;;;;;4028901;29;20064;-67
2023/01/31 08:22:37;;;;;;;6.57;2.08;;;16.20;65.20;;;;;;4029129;29;20109;-66
2023/01/31 08:25:18;;;;;;;9.70;2.50;;;16.10;65.30;;;;;;4030934;29;20060;-67
2023/01/31 08:28:00;;;;;;;12.63;3.28;;;16.10;65.10;;;;;;4033896;29;20144;-66
2023/01/31 08:30:42;;;;;;;;;;;16.10;65.10;;;;;;4032983;29;20060;-65
2023/01/31 08:33:26;;;;;;;18.52;2.58;;;16.00;65.90;;;;;;4030925;29;19943;-70
2023/01/31 08:36:12;;;;;;;8.77;2.75;;;15.90;66.60;;;;;;4038799;29;20059;-66
2023/01/31 08:38:55;;;;;;;8.98;2.35;;;15.90;67.20;;;;;;4031774;29;20124;-66
2023/01/31 08:41:38;;;;;;;8.05;1.83;;;15.80;67.70;;;;;;4046962;29;20063;-66
2023/01/31 08:44:19;;;;;;;9.48;2.50;;;15.90;69.10;;;;;;4045725;29;20138;-66
2023/01/31 08:47:00;;;;;;;6.25;2.35;;;15.90;68.10;;;;;;4033721;29;20132;-65
2023/01/31 08:49:43;;;;;;;11.23;2.50;;;15.90;68.90;;;;;;4033186;29;20064;-67
2023/01/31 08:52:24;;;;;;;8.70;2.30;;;16.00;68.30;;;;;;4041596;29;20059;-67
2023/01/31 08:55:08;;;;;;;9.43;2.33;;;16.00;68.40;;;;;;4038883;29;20067;-70
2023/01/31 08:57:50;;;;;;;6.78;2.15;;;16.00;68.10;;;;;;4042251;29;20420;-70
2023/01/31 09:00:39;;;;;;;10.45;2.40;;;16.00;68.10;;;;;;4032120;29;20052;-69
2023/01/31 09:03:21;;;;;;;7.38;2.53;;;16.00;68.40;;;;;;4031649;29;20052;-68
2023/01/31 09:06:06;;;;;;;8.63;1.80;;;16.10;68.60;;;;;;4030682;29;20060;-68
2023/01/31 09:08:47;;;;;;;11.23;2.53;;;16.20;68.40;;;;;;4034492;29;20108;-71
2023/01/31 09:11:29;;;;;;;9.80;2.20;;;16.30;68.00;;;;;;4032527;29;20517;-68
2023/01/31 09:14:10;;;;;;;8.57;2.63;;;16.30;68.10;;;;;;4030459;29;20061;-68
2023/01/31 09:16:51;;;;;;;11.30;2.05;;;16.30;67.90;;;;;;4031780;29;20060;-70
2023/01/31 09:19:32;;;;;;;11.05;2.97;;;16.30;68.40;;;;;;4013529;29;20059;-67
2023/01/31 09:22:14;;;;;;;9.77;2.42;;;16.30;68.70;;;;;;4030169;29;20060;-68
2023/01/31 09:24:55;;;;;;;8.38;2.17;;;16.20;68.70;;;;;;4044338;29;20059;-67
2023/01/31 09:27:38;;;;;;;10.95;2.70;;;16.10;68.70;;;;;;4041651;29;20060;-67
2023/01/31 09:30:19;;;;;;;9.20;2.42;;;16.10;69.10;;;;;;4030971;29;20056;-67
2023/01/31 09:33:01;;;;;;;14.13;2.90;;;16.10;69.20;;;;;;4035181;29;20063;-67
2023/01/31 09:35:42;;;;;;;12.00;2.88;;;16.20;69.00;;;;;;4037722;29;20381;-68
2023/01/31 09:38:25;;;;;;;10.45;2.72;;;16.10;68.60;;;;;;4031376;29;20068;-67
2023/01/31 09:41:18;;;;;;;18.55;3.78;;;16.20;68.50;;;;;;4032890;29;20135;-68
2023/01/31 09:44:03;;;;;;;14.25;2.83;;;16.10;68.40;;;;;;4032025;29;20072;-67
2023/01/31 09:46:49;;;;;;;11.82;3.00;;;16.10;68.60;;;;;;4031775;29;20140;-67
2023/01/31 09:49:42;;;;;;;10.27;2.72;;;16.10;68.60;;;;;;4035356;29;20177;-68
2023/01/31 09:52:26;;;;;;;13.02;3.13;;;16.10;68.50;;;;;;4037815;29;20059;-68
2023/01/31 09:55:15;;;;;;;11.90;2.88;;;16.10;68.70;;;;;;4035136;29;20064;-66
2023/01/31 09:58:03;;;;;;;7.55;2.15;;;16.10;68.60;;;;;;4035396;29;20184;-67
2023/01/31 10:00:50;;;;;;;11.75;2.72;;;16.20;68.70;;;;;;4035672;29;20067;-66
2023/01/31 10:03:53;;;;;;;9.43;2.83;;;16.20;68.70;;;;;;4037080;29;20140;-67
2023/01/31 10:06:43;;;;;;;14.48;3.40;;;16.10;68.90;;;;;;4040898;29;20056;-65
2023/01/31 10:09:31;;;;;;;15.60;3.25;;;16.10;69.00;;;;;;4035593;29;20189;-71
2023/01/31 10:12:18;;;;;;;10.88;2.13;;;16.20;69.00;;;;;;4038406;29;20124;-65
2023/01/31 10:15:03;;;;;;;6.22;1.80;;;16.20;69.10;;;;;;4035971;29;20048;-65
2023/01/31 10:17:48;;;;;;;11.15;3.28;;;16.20;69.30;;;;;;4030923;29;20488;-66
2023/01/31 10:20:35;;;;;;;12.18;2.90;;;16.30;69.20;;;;;;4029818;29;20067;-60
2023/01/31 10:23:22;;;;;;;15.55;2.72;;;16.40;68.70;;;;;;4032412;29;20063;-65
2023/01/31 10:26:06;;;;;;;12.55;2.42;;;16.50;68.50;;;;;;4029956;29;20071;-68
2023/01/31 10:28:58;;;;;;;10.32;2.55;;;16.50;68.20;;;;;;4042081;29;20818;-64
2023/01/31 10:31:44;;;;;;;12.70;2.42;;;16.50;68.00;;;;;;4032669;29;20060;-66
2023/01/31 10:34:28;;;;;;;10.38;3.10;;;16.50;68.20;;;;;;4033295;29;20197;-69
2023/01/31 10:37:18;;;;;;;10.30;2.47;;;16.50;68.20;;;;;;4028941;29;20064;-64
2023/01/31 10:40:04;;;;;;;10.50;2.65;;;16.50;68.40;;;;;;4030173;29;20100;-66
2023/01/31 10:42:51;;;;;;;12.65;2.38;;;16.60;68.00;;;;;;4029652;29;20064;-63
2023/01/31 10:45:34;;;;;;;10.90;2.60;;;16.70;67.80;;;;;;4029851;29;20580;-65
2023/01/31 10:48:18;;;;;;;12.90;2.95;;;16.70;67.80;;;;;;4036572;29;20869;-67
2023/01/31 10:51:07;;;;;;;10.00;2.17;;;16.70;67.70;;;;;;4036056;29;20618;-68
2023/01/31 10:54:03;;;;;;;9.50;2.08;;;16.70;67.70;;;;;;4029264;29;20056;-67
2023/01/31 10:56:46;;;;;;;7.60;2.20;;;16.80;67.70;;;;;;4035024;29;20047;-68
2023/01/31 10:59:33;;;;;;;7.03;2.55;;;16.70;67.80;;;;;;4041322;29;20393;-71
2023/01/31 11:02:20;;;;;;;7.03;2.08;;;16.70;68.00;;;;;;4026163;29;20060;-74
2023/01/31 11:05:02;;;;;;;6.70;2.22;;;16.70;68.20;;;;;;4038593;29;20072;-74
2023/01/31 11:07:43;;;;;;;10.65;2.67;;;16.70;68.30;;;;;;4037701;29;20064;-72
2023/01/31 11:10:26;;;;;;;7.13;2.20;;;16.70;68.40;;;;;;4041062;29;20139;-69
2023/01/31 11:13:19;;;;;;;10.35;2.95;;;16.70;68.70;;;;;;4050476;29;20063;-68
2023/01/31 11:16:03;;;;;;;7.95;2.25;;;16.70;68.60;;;;;;4060196;29;20058;-67
2023/01/31 11:18:48;;;;;;;10.05;3.10;;;16.70;68.60;;;;;;4048136;29;20103;-67
2023/01/31 11:21:32;;;;;;;8.02;2.10;;;16.70;68.50;;;;;;4010959;29;20436;-67
2023/01/31 11:24:19;;;;;;;6.30;2.63;;;16.70;68.60;;;;;;4047677;29;20419;-67
2023/01/31 11:27:03;;;;;;;12.95;2.72;;;16.70;68.80;;;;;;4060079;29;20055;-68
2023/01/31 11:29:49;;;;;;;9.98;2.13;;;16.60;68.90;;;;;;4059553;29;20058;-67
2023/01/31 11:32:33;;;;;;;6.45;1.98;;;16.60;69.20;;;;;;4060227;29;20146;-67
2023/01/31 11:35:26;;;;;;;8.02;2.28;;;16.60;69.60;;;;;;4060014;29;20216;-67
2023/01/31 11:38:21;;;;;;;7.90;2.00;;;16.60;69.50;;;;;;4053109;29;20063;-67
2023/01/31 11:41:02;;;;;;;10.90;2.75;;;16.50;69.40;;;;;;4048474;29;20054;-67
2023/01/31 11:43:42;;;;;;;4.78;1.77;;;16.50;69.40;;;;;;4060066;29;20062;-67
2023/01/31 11:46:24;;;;;;;9.10;2.13;;;16.50;70.40;;;;;;4060101;29;20499;-67
2023/01/31 11:49:12;;;;;;;9.23;2.50;;;16.40;69.70;;;;;;4059533;29;20062;-67
2023/01/31 11:51:54;;;;;;;8.95;2.67;;;16.30;69.90;;;;;;4060101;29;20526;-74
2023/01/31 11:54:36;;;;;;;9.90;2.42;;;16.30;70.20;;;;;;4059911;29;20150;-68
2023/01/31 11:57:21;;;;;;;8.90;2.10;;;16.20;70.40;;;;;;4059678;29;20127;-68
2023/01/31 12:00:06;;;;;;;12.23;1.85;;;16.10;71.00;;;;;;4061135;29;20432;-68
2023/01/31 12:02:58;;;;;;;8.52;2.38;;;16.00;71.30;;;;;;4063280;29;20442;-68
2023/01/31 12:05:43;;;;;;;8.80;2.38;;;16.00;71.70;;;;;;4062717;29;20046;-68
2023/01/31 12:08:35;;;;;;;9.07;1.90;;;16.10;71.60;;;;;;4062992;29;20063;-68
2023/01/31 12:11:26;;;;;;;;;;;16.10;71.50;;;;;;4063058;29;20063;-69
2023/01/31 12:14:14;;;;;;;13.00;2.75;;;16.10;71.40;;;;;;4049819;29;19934;-73
2023/01/31 12:16:56;;;;;;;12.15;2.80;;;16.10;71.40;;;;;;4062870;29;20055;-72
2023/01/31 12:19:49;;;;;;;7.72;2.10;;;16.10;72.00;;;;;;4063129;29;20051;-74
2023/01/31 12:22:35;;;;;;;8.48;2.78;;;16.20;72.10;;;;;;4039411;29;20091;-73
2023/01/31 12:25:27;;;;;;;16.25;2.92;;;16.30;72.10;;;;;;4045302;29;20059;-70
2023/01/31 12:28:15;;;;;;;11.05;2.58;;;16.30;71.90;;;;;;4049555;29;20111;-69
2023/01/31 12:31:07;;;;;;;8.88;1.98;;;16.40;71.80;;;;;;4062027;29;20047;-71
2023/01/31 12:34:02;;;;;;;9.65;2.40;;;16.40;71.60;;;;;;4062064;29;20142;-70
2023/01/31 12:36:57;;;;;;;13.40;2.67;;;16.40;71.40;;;;;;4061645;29;20125;-69
2023/01/31 12:40:13;;;;;;;15.05;3.20;;;16.50;71.40;;;;;;4061758;29;20532;-69
2023/01/31 12:43:21;;;;;;;8.93;3.00;;;16.50;71.00;;;;;;4061477;29;20055;-71
2023/01/31 12:46:10;;;;;;;12.68;3.08;;;16.60;71.00;;;;;;4061622;29;20079;-71
2023/01/31 12:49:26;;;;;;;11.55;2.85;;;16.60;70.90;;;;;;4062712;29;20059;-71
2023/01/31 12:52:17;;;;;;;13.32;3.00;;;16.60;70.90;;;;;;4050186;29;20184;-69
2023/01/31 12:55:16;;;;;;;11.30;3.08;;;16.60;70.90;;;;;;4062092;29;20063;-69
2023/01/31 12:58:13;;;;;;;11.05;3.03;;;16.60;71.20;;;;;;4061359;29;20058;-68
2023/01/31 13:01:01;;;;;;;19.25;2.65;;;16.60;71.10;;;;;;4061981;29;20074;-70
2023/01/31 13:03:59;;;;;;;14.63;2.50;;;16.60;71.00;;;;;;4061807;29;20411;-70
2023/01/31 13:06:45;;;;;;;12.02;2.78;;;16.50;71.10;;;;;;4061471;29;20047;-71
2023/01/31 13:09:31;;;;;;;11.57;2.80;;;16.50;71.30;;;;;;4050617;29;20593;-74
2023/01/31 13:12:15;;;;;;;11.05;2.65;;;16.50;71.60;;;;;;4060919;29;20055;-71
2023/01/31 13:15:03;;;;;;;13.00;2.70;;;16.50;71.50;;;;;;4048138;29;20521;-74
2023/01/31 13:17:55;;;;;;;5.80;2.10;;;16.60;71.40;;;;;;4062024;29;20051;-67
2023/01/31 13:20:39;;;;;;;5.18;1.55;;;16.70;71.30;;;;;;4061933;29;20200;-68
2023/01/31 13:23:28;;;;;;;12.32;2.25;;;16.70;71.20;;;;;;4061673;29;20046;-69
2023/01/31 13:26:13;;;;;;;10.05;2.55;;;16.70;71.20;;;;;;4061820;29;20058;-66
2023/01/31 13:29:05;;;;;;;10.32;2.80;;;16.60;71.00;;;;;;4061364;29;20835;-67
2023/01/31 13:32:37;;;;;;;8.10;1.85;;;16.60;71.00;;;;;;4048814;29;20056;-71
2023/01/31 13:35:24;;;;;;;7.07;2.30;;;16.50;71.40;;;;;;4049966;29;20051;-71
2023/01/31 13:38:13;;;;;;;12.50;3.08;;;16.40;71.60;;;;;;4061193;29;20451;-71
2023/01/31 13:40:57;;;;;;;13.32;2.70;;;16.30;71.60;;;;;;4054877;29;20055;-71
2023/01/31 13:43:39;;;;;;;8.55;2.60;;;16.30;72.20;;;;;;4060898;29;20506;-71
2023/01/31 13:46:21;;;;;;;;;;;16.30;72.40;;;;;;4061272;29;20079;-70
2023/01/31 13:49:07;;;;;;;6.28;3.33;;;16.30;72.10;;;;;;4061579;29;20285;-72
2023/01/31 13:51:52;;;;;;;10.77;2.55;;;16.40;71.80;;;;;;4061796;29;20056;-69
2023/01/31 13:54:37;;;;;;;8.02;2.25;;;16.40;71.30;;;;;;4061156;29;20149;-71
2023/01/31 13:57:25;;;;;;;11.50;2.78;;;16.30;71.30;;;;;;4061483;29;20059;-70
2023/01/31 14:00:18;;;;;;;9.75;2.28;;;16.30;71.40;;;;;;4053651;29;20071;-73
2023/01/31 14:03:01;;;;;;;7.45;2.15;;;16.20;71.20;;;;;;4052628;29;20055;-74
2023/01/31 14:05:59;;;;;;;13.00;3.70;;;16.20;71.70;;;;;;4056072;29;20062;-74
2023/01/31 14:08:57;;;;;;;10.63;2.30;;;16.10;71.50;;;;;;4060819;29;20616;-75
2023/01/31 14:11:44;;;;;;;11.63;2.42;;;16.00;71.60;;;;;;4049307;29;20062;-74
2023/01/31 14:14:40;;;;;;;17.92;2.53;;;15.90;72.10;;;;;;4047362;29;20522;-73
2023/01/31 14:17:53;;;;;;;10.73;2.95;;;15.90;72.60;;;;;;4061578;29;20083;-78